createdAt,value
2023-01-09T00:01:49.528Z,10.10
2023-01-09T00:04:20.492Z,9.10
2023-01-09T00:06:54.735Z,8.40
2023-01-09T00:09:26.400Z,8.10
2023-01-09T00:11:57.475Z,8.20
2023-01-09T00:14:28.185Z,8.10
2023-01-09T00:16:58.951Z,8.10
2023-01-09T00:19:29.664Z,8.10
2023-01-09T00:22:00.410Z,8.10
2023-01-09T00:24:31.088Z,8.20
2023-01-09T00:27:01.750Z,8.20
2023-01-09T00:29:32.510Z,8.10
2023-01-09T00:32:03.382Z,8.10
2023-01-09T00:34:37.853Z,8.10
2023-01-09T00:37:11.205Z,8.00
2023-01-09T00:39:42.670Z,8.10
2023-01-09T00:42:16.421Z,8.10
2023-01-09T00:44:50.159Z,8.10
2023-01-09T00:47:23.983Z,8.10
2023-01-09T00:49:56.236Z,8.10
2023-01-09T00:52:26.869Z,8.00
2023-01-09T00:54:59.068Z,7.90
2023-01-09T00:57:29.877Z,7.90
2023-01-09T01:00:01.212Z,7.80
2023-01-09T01:02:31.910Z,7.80
2023-01-09T01:08:03.796Z,7.80
2023-01-09T01:10:34.464Z,7.90
2023-01-09T01:13:05.216Z,8.00
2023-01-09T01:15:40.598Z,8.00
2023-01-09T01:18:11.941Z,7.90
2023-01-09T01:20:44.505Z,7.70
2023-01-09T01:23:15.260Z,7.20
2023-01-09T01:25:45.968Z,6.90
2023-01-09T01:28:16.772Z,7.00
2023-01-09T01:30:47.480Z,7.20
2023-01-09T01:33:18.136Z,6.90
2023-01-09T01:35:48.802Z,6.80
2023-01-09T01:38:19.527Z,6.70
2023-01-09T01:40:55.846Z,6.90
2023-01-09T01:43:26.917Z,7.30
2023-01-09T01:45:57.662Z,7.40
2023-01-09T01:48:30.757Z,7.40
2023-01-09T01:51:04.742Z,7.40
2023-01-09T01:53:38.893Z,7.30
2023-01-09T01:56:13.944Z,7.30
2023-01-09T01:58:47.154Z,7.30
2023-01-09T02:01:18.328Z,7.30
2023-01-09T02:03:49.938Z,7.30
2023-01-09T02:06:20.646Z,7.10
2023-01-09T02:08:52.171Z,7.20
2023-01-09T02:11:23.545Z,7.20
2023-01-09T02:13:54.870Z,7.10
2023-01-09T02:16:33.219Z,7.10
2023-01-09T02:19:08.853Z,7.20
2023-01-09T02:21:45.967Z,7.20
2023-01-09T02:24:46.584Z,7.20
2023-01-09T02:27:27.103Z,7.10
2023-01-09T02:30:23.602Z,7.30
2023-01-09T02:33:03.611Z,7.30
2023-01-09T02:38:44.668Z,7.60
2023-01-09T02:41:18.438Z,7.50
2023-01-09T02:43:49.642Z,7.40
2023-01-09T02:46:23.812Z,7.20
2023-01-09T02:48:56.229Z,7.30
2023-01-09T02:51:31.206Z,7.30
2023-01-09T02:54:13.845Z,7.20
2023-01-09T02:57:11.656Z,7.00
2023-01-09T02:59:46.798Z,6.90
2023-01-09T03:02:37.886Z,6.90
2023-01-09T03:05:12.630Z,6.90
2023-01-09T03:07:46.464Z,6.80
2023-01-09T03:10:20.535Z,6.80
2023-01-09T03:12:54.088Z,6.80
2023-01-09T03:15:28.162Z,6.80
2023-01-09T03:18:00.568Z,6.80
2023-01-09T03:20:32.855Z,6.70
2023-01-09T03:23:06.110Z,6.60
2023-01-09T03:25:37.390Z,6.60
2023-01-09T03:28:10.527Z,6.60
2023-01-09T03:30:41.322Z,6.60
2023-01-09T03:33:11.995Z,6.60
2023-01-09T03:35:42.681Z,6.60
2023-01-09T03:38:13.416Z,6.60
2023-01-09T03:40:44.405Z,6.70
2023-01-09T03:43:15.107Z,6.80
2023-01-09T03:45:45.962Z,6.70
2023-01-09T03:48:16.690Z,6.70
2023-01-09T03:50:48.903Z,6.70
2023-01-09T03:53:20.334Z,6.60
2023-01-09T03:55:53.278Z,6.60
2023-01-09T03:58:25.233Z,6.60
2023-01-09T04:01:00.157Z,6.60
2023-01-09T04:03:31.273Z,6.70
2023-01-09T04:06:01.988Z,6.70
2023-01-09T04:08:32.600Z,6.80
2023-01-09T04:11:03.222Z,6.70
2023-01-09T04:13:34.034Z,6.80
2023-01-09T04:16:05.091Z,6.90
2023-01-09T04:18:35.709Z,6.90
2023-01-09T04:21:06.455Z,7.00
2023-01-09T04:23:37.075Z,7.00
2023-01-09T04:26:08.142Z,7.00
2023-01-09T04:28:38.790Z,7.00
2023-01-09T04:31:09.916Z,7.10
2023-01-09T04:33:40.574Z,7.10
2023-01-09T04:36:13.051Z,7.10
2023-01-09T04:38:43.744Z,7.00
2023-01-09T04:41:16.653Z,7.00
2023-01-09T04:43:47.366Z,7.00
2023-01-09T04:46:18.004Z,6.90
2023-01-09T04:48:48.764Z,6.90
2023-01-09T04:51:19.329Z,7.00
2023-01-09T04:53:49.877Z,7.00
2023-01-09T04:56:20.515Z,6.90
2023-01-09T04:58:51.123Z,6.90
2023-01-09T05:01:21.861Z,6.70
2023-01-09T05:03:52.750Z,6.70
2023-01-09T05:06:23.430Z,6.80
2023-01-09T05:08:54.010Z,6.70
2023-01-09T05:11:25.768Z,6.70
2023-01-09T05:13:56.554Z,6.70
2023-01-09T05:16:27.241Z,6.70
2023-01-09T05:18:57.957Z,6.80
2023-01-09T05:21:29.091Z,6.80
2023-01-09T05:23:59.817Z,6.70
2023-01-09T05:26:30.633Z,6.70
2023-01-09T05:29:01.254Z,6.70
2023-01-09T05:31:32.010Z,6.70
2023-01-09T05:34:03.711Z,6.70
2023-01-09T05:36:34.446Z,6.80
2023-01-09T05:39:05.925Z,6.70
2023-01-09T05:41:36.641Z,6.70
2023-01-09T05:44:07.513Z,6.60
2023-01-09T05:46:38.104Z,6.50
2023-01-09T05:49:08.809Z,6.40
2023-01-09T05:51:39.808Z,6.40
2023-01-09T05:54:10.656Z,6.40
2023-01-09T05:56:42.851Z,6.40
2023-01-09T05:59:13.433Z,6.50
2023-01-09T06:01:44.258Z,6.50
2023-01-09T06:04:14.949Z,6.40
2023-01-09T06:09:22.990Z,6.40
2023-01-09T06:11:54.821Z,6.30
2023-01-09T06:14:25.615Z,6.40
2023-01-09T06:16:56.222Z,6.50
2023-01-09T06:19:26.927Z,6.40
2023-01-09T06:21:57.624Z,6.10
2023-01-09T06:24:28.409Z,6.20
2023-01-09T06:26:59.065Z,6.10
2023-01-09T06:29:29.697Z,6.00
2023-01-09T06:32:00.293Z,5.80
2023-01-09T06:34:30.960Z,5.80
2023-01-09T06:37:01.496Z,6.00
2023-01-09T06:39:32.364Z,6.00
2023-01-09T06:42:02.917Z,5.90
2023-01-09T06:44:35.619Z,5.80
2023-01-09T06:47:06.386Z,5.80
2023-01-09T06:49:37.003Z,5.70
2023-01-09T06:52:07.925Z,5.70
2023-01-09T06:54:38.563Z,5.80
2023-01-09T06:57:09.131Z,5.60
2023-01-09T06:59:39.720Z,5.70
2023-01-09T07:02:16.463Z,5.70
2023-01-09T07:04:48.196Z,5.70
2023-01-09T07:07:20.020Z,5.70
2023-01-09T07:09:51.009Z,5.80
2023-01-09T07:12:21.574Z,5.90
2023-01-09T07:14:52.222Z,5.80
2023-01-09T07:17:22.825Z,5.70
2023-01-09T07:19:53.380Z,5.70
2023-01-09T07:22:24.002Z,5.60
2023-01-09T07:24:54.651Z,5.70
2023-01-09T07:27:25.262Z,5.70
2023-01-09T07:29:55.873Z,5.70
2023-01-09T07:32:26.442Z,5.70
2023-01-09T07:34:57.112Z,5.70
2023-01-09T07:37:28.163Z,5.60
2023-01-09T07:39:58.789Z,5.50
2023-01-09T07:42:29.518Z,5.50
2023-01-09T07:45:00.520Z,5.40
2023-01-09T07:47:31.274Z,5.40
2023-01-09T07:50:01.894Z,5.40
2023-01-09T07:52:32.529Z,5.50
2023-01-09T07:55:03.491Z,5.50
2023-01-09T07:57:34.146Z,5.40
2023-01-09T08:00:07.029Z,5.50
2023-01-09T08:02:38.058Z,5.50
2023-01-09T08:05:12.259Z,5.60
2023-01-09T08:07:42.922Z,5.80
2023-01-09T08:10:14.806Z,5.90
2023-01-09T08:12:48.736Z,6.00
2023-01-09T08:15:19.573Z,6.10
2023-01-09T08:17:50.127Z,6.20
2023-01-09T08:20:21.223Z,6.20
2023-01-09T08:22:53.388Z,6.30
2023-01-09T08:25:24.134Z,6.30
2023-01-09T08:27:54.817Z,6.30
2023-01-09T08:30:25.512Z,6.20
2023-01-09T08:32:56.857Z,6.30
2023-01-09T08:35:27.472Z,6.40
2023-01-09T08:37:58.033Z,6.40
2023-01-09T08:40:28.679Z,6.50
2023-01-09T08:43:16.732Z,6.50
2023-01-09T08:46:21.471Z,6.70
2023-01-09T08:48:52.108Z,6.80
2023-01-09T08:51:22.693Z,6.70
2023-01-09T08:53:53.416Z,6.80
2023-01-09T08:56:23.982Z,6.80
2023-01-09T08:58:54.664Z,7.00
2023-01-09T09:01:25.240Z,7.00
2023-01-09T09:03:55.922Z,7.10
2023-01-09T09:06:26.641Z,7.10
2023-01-09T09:08:57.332Z,7.10
2023-01-09T09:11:28.143Z,7.20
2023-01-09T09:13:59.126Z,7.20
2023-01-09T09:16:30.213Z,7.30
2023-01-09T09:19:01.046Z,7.30
2023-01-09T09:21:31.811Z,7.30
2023-01-09T09:24:02.431Z,7.20
2023-01-09T09:26:33.840Z,7.20
2023-01-09T09:29:04.556Z,7.10
2023-01-09T09:31:35.271Z,6.80
2023-01-09T09:34:06.278Z,6.80
2023-01-09T09:36:37.468Z,6.70
2023-01-09T09:39:08.815Z,6.70
2023-01-09T09:44:54.626Z,6.70
2023-01-09T09:47:41.035Z,6.70
2023-01-09T09:50:25.071Z,6.90
2023-01-09T09:52:59.738Z,6.90
2023-01-09T09:58:16.078Z,7.20
2023-01-09T10:00:46.753Z,7.20
2023-01-09T10:03:33.065Z,7.30
2023-01-09T10:05:55.660Z,7.30
2023-01-09T10:08:31.398Z,7.20
2023-01-09T10:11:02.461Z,7.20
2023-01-09T10:13:50.699Z,7.20
2023-01-09T10:16:29.621Z,7.40
2023-01-09T10:19:06.753Z,7.60
2023-01-09T10:21:40.899Z,7.80
2023-01-09T10:24:28.698Z,7.90
2023-01-09T10:26:59.618Z,8.00
2023-01-09T10:29:41.693Z,8.10
2023-01-09T10:32:28.434Z,8.20
2023-01-09T10:35:08.518Z,8.30
2023-01-09T10:37:42.646Z,8.30
2023-01-09T10:40:20.175Z,8.50
2023-01-09T10:42:53.970Z,8.70
2023-01-09T10:45:28.968Z,8.80
2023-01-09T10:48:02.892Z,8.90
2023-01-09T10:50:36.360Z,8.80
2023-01-09T10:55:52.140Z,8.70
2023-01-09T10:58:24.029Z,8.70
2023-01-09T11:00:56.294Z,8.80
2023-01-09T11:03:30.342Z,9.00
2023-01-09T11:06:03.324Z,9.00
2023-01-09T11:08:39.166Z,9.00
2023-01-09T11:11:10.303Z,9.00
2023-01-09T11:13:42.898Z,8.90
2023-01-09T11:16:18.129Z,8.80
2023-01-09T11:18:53.716Z,8.80
2023-01-09T11:24:31.746Z,8.90
2023-01-09T11:27:27.280Z,8.90
2023-01-09T11:33:08.982Z,9.00
2023-01-09T11:35:39.782Z,9.10
2023-01-09T11:38:15.427Z,9.20
2023-01-09T11:40:51.370Z,9.10
2023-01-09T11:43:32.931Z,9.00
2023-01-09T11:46:07.116Z,9.10
2023-01-09T11:48:40.666Z,9.00
2023-01-09T11:51:23.940Z,9.00
2023-01-09T11:54:02.336Z,8.90
2023-01-09T11:56:33.611Z,8.90
2023-01-09T11:59:05.716Z,8.90
2023-01-09T12:02:00.395Z,8.90
2023-01-09T12:04:34.660Z,8.90
2023-01-09T12:07:23.107Z,8.90
2023-01-09T12:10:00.076Z,9.00
2023-01-09T12:15:23.522Z,9.20
2023-01-09T12:18:11.049Z,9.10
2023-01-09T12:20:53.689Z,8.70
2023-01-09T12:26:15.890Z,8.60
2023-01-09T12:29:17.904Z,8.40
2023-01-09T12:32:00.439Z,8.40
2023-01-09T12:34:39.921Z,8.30
2023-01-09T12:37:18.236Z,8.40
2023-01-09T12:39:51.824Z,8.50
2023-01-09T12:42:33.571Z,8.60
2023-01-09T12:45:08.459Z,8.60
2023-01-09T12:47:48.273Z,8.60
2023-01-09T12:50:34.432Z,8.40
2023-01-09T12:53:25.370Z,8.50
2023-01-09T12:55:59.817Z,8.70
2023-01-09T12:58:39.803Z,8.70
2023-01-09T13:01:13.974Z,8.50
2023-01-09T13:03:48.775Z,8.40
2023-01-09T13:06:22.805Z,8.40
2023-01-09T13:08:58.431Z,8.50
2023-01-09T13:11:32.754Z,8.50
2023-01-09T13:14:07.160Z,8.40
2023-01-09T13:16:42.040Z,8.40
2023-01-09T13:19:17.311Z,8.40
2023-01-09T13:21:48.471Z,8.60
2023-01-09T13:24:22.542Z,8.70
2023-01-09T13:26:56.226Z,8.70
2023-01-09T13:29:30.194Z,8.60
2023-01-09T13:35:13.491Z,8.60
2023-01-09T13:37:46.607Z,8.40
2023-01-09T13:40:29.624Z,8.40
2023-01-09T13:43:04.284Z,8.40
2023-01-09T13:45:37.194Z,8.40
2023-01-09T13:48:32.134Z,8.40
2023-01-09T13:54:42.865Z,8.40
2023-01-09T13:57:34.942Z,8.30
2023-01-09T14:01:03.660Z,8.10
2023-01-09T14:06:21.775Z,8.10
2023-01-09T14:09:08.525Z,8.10
2023-01-09T14:11:39.642Z,8.00
2023-01-09T14:14:26.647Z,7.60
2023-01-09T14:16:59.303Z,7.40
2023-01-09T14:19:36.377Z,7.00
2023-01-09T14:22:08.016Z,7.00
2023-01-09T14:24:47.192Z,6.90
2023-01-09T14:27:52.825Z,7.00
2023-01-09T14:30:36.178Z,7.00
2023-01-09T14:33:27.169Z,7.10
2023-01-09T14:36:03.420Z,7.10
2023-01-09T14:38:37.482Z,7.00
2023-01-09T14:41:11.755Z,6.90
2023-01-09T14:43:48.005Z,6.80
2023-01-09T14:46:20.621Z,6.60
2023-01-09T14:49:27.152Z,6.50
2023-01-09T14:51:59.836Z,6.40
2023-01-09T14:54:34.365Z,6.30
2023-01-09T14:57:05.397Z,6.20
2023-01-09T14:59:36.023Z,6.20
2023-01-09T15:02:10.112Z,6.20
2023-01-09T15:07:26.188Z,6.10
2023-01-09T15:09:58.296Z,6.10
2023-01-09T15:12:29.501Z,6.10
2023-01-09T15:15:02.723Z,6.10
2023-01-09T15:17:35.681Z,6.10
2023-01-09T15:20:09.446Z,6.10
2023-01-09T15:22:40.454Z,6.10
2023-01-09T15:25:37.725Z,6.10
2023-01-09T15:28:01.308Z,6.00
2023-01-09T15:30:35.319Z,5.90
2023-01-09T15:33:10.337Z,6.00
2023-01-09T15:35:44.385Z,5.90
2023-01-09T15:40:59.443Z,5.90
2023-01-09T15:43:33.345Z,6.00
2023-01-09T15:46:04.434Z,6.00
2023-01-09T15:48:36.480Z,6.00
2023-01-09T15:51:10.643Z,5.90
2023-01-09T15:53:43.639Z,6.00
2023-01-09T15:56:23.797Z,6.10
2023-01-09T15:58:55.578Z,6.20
2023-01-09T16:01:31.615Z,6.10
2023-01-09T16:04:07.588Z,6.10
2023-01-09T16:06:42.171Z,6.20
2023-01-09T16:09:18.971Z,6.30
2023-01-09T16:11:55.688Z,6.30
2023-01-09T16:14:30.771Z,6.30
2023-01-09T16:17:05.095Z,6.30
2023-01-09T16:19:45.327Z,6.60
2023-01-09T16:22:22.086Z,6.40
2023-01-09T16:24:54.552Z,5.80
2023-01-09T16:27:27.483Z,5.50
2023-01-09T16:29:59.747Z,5.50
2023-01-09T16:32:33.065Z,5.50
2023-01-09T16:35:06.646Z,5.50
2023-01-09T16:37:37.604Z,5.60
2023-01-09T16:40:32.339Z,5.70
2023-01-09T16:43:08.192Z,5.70
2023-01-09T16:45:41.159Z,5.60
2023-01-09T16:48:17.218Z,5.60
2023-01-09T16:50:47.917Z,5.50
2023-01-09T16:53:22.043Z,5.50
2023-01-09T16:55:54.620Z,5.60
2023-01-09T16:58:28.251Z,5.40
2023-01-09T17:00:59.665Z,5.40
2023-01-09T17:03:30.458Z,5.50
2023-01-09T17:06:04.704Z,5.30
2023-01-09T17:08:38.126Z,5.30
2023-01-09T17:11:11.713Z,5.30
2023-01-09T17:13:42.817Z,5.20
2023-01-09T17:16:14.179Z,5.30
2023-01-09T17:18:45.377Z,5.60
2023-01-09T17:21:21.719Z,5.80
2023-01-09T17:23:54.499Z,5.90
2023-01-09T17:26:42.874Z,6.10
2023-01-09T17:29:13.667Z,6.00
2023-01-09T17:31:44.298Z,5.90
2023-01-09T17:34:14.950Z,5.70
2023-01-09T17:36:46.401Z,5.60
2023-01-09T17:39:18.530Z,5.90
2023-01-09T17:41:49.312Z,5.80
2023-01-09T17:44:20.286Z,5.70
2023-01-09T17:46:50.949Z,5.80
2023-01-09T17:49:24.991Z,5.90
2023-01-09T17:51:55.604Z,5.90
2023-01-09T17:54:27.374Z,5.90
2023-01-09T17:56:59.382Z,5.80
2023-01-09T17:59:30.399Z,5.80
2023-01-09T18:02:01.080Z,5.80
2023-01-09T18:04:31.765Z,5.80
2023-01-09T18:07:02.497Z,5.90
2023-01-09T18:09:33.079Z,6.00
2023-01-09T18:12:03.732Z,5.90
2023-01-09T18:14:35.636Z,5.90
2023-01-09T18:17:06.809Z,5.90
2023-01-09T18:19:37.439Z,5.90
2023-01-09T18:22:08.025Z,5.90
2023-01-09T18:24:39.015Z,6.10
2023-01-09T18:27:09.607Z,6.20
2023-01-09T18:29:40.286Z,6.20
2023-01-09T18:32:11.060Z,6.50
2023-01-09T18:34:41.820Z,6.50
2023-01-09T18:37:12.693Z,6.40
2023-01-09T18:39:43.372Z,6.40
2023-01-09T18:42:14.064Z,6.30
2023-01-09T18:44:44.742Z,6.50
2023-01-09T18:47:15.417Z,6.40
2023-01-09T18:49:46.061Z,6.40
2023-01-09T18:52:16.684Z,6.70
2023-01-09T18:54:47.484Z,6.80
2023-01-09T18:57:18.290Z,6.80
2023-01-09T18:59:48.881Z,6.70
2023-01-09T19:02:22.758Z,6.90
2023-01-09T19:04:53.855Z,6.70
2023-01-09T19:07:24.577Z,6.80
2023-01-09T19:09:55.197Z,6.80
2023-01-09T19:12:25.920Z,6.60
2023-01-09T19:14:56.633Z,6.50
2023-01-09T19:17:27.415Z,6.50
2023-01-09T19:19:58.021Z,6.40
2023-01-09T19:22:28.814Z,6.30
2023-01-09T19:24:59.618Z,6.30
2023-01-09T19:27:32.033Z,6.30
2023-01-09T19:30:02.759Z,6.30
2023-01-09T19:32:33.594Z,6.30
2023-01-09T19:35:04.551Z,6.30
2023-01-09T19:37:37.509Z,6.20
2023-01-09T19:40:11.054Z,6.10
2023-01-09T19:42:42.055Z,5.90
2023-01-09T19:45:13.817Z,5.90
2023-01-09T19:47:45.614Z,5.90
2023-01-09T19:50:18.032Z,6.00
2023-01-09T19:52:51.094Z,6.00
2023-01-09T19:55:21.946Z,6.00
2023-01-09T19:57:52.651Z,6.10
2023-01-09T20:00:23.987Z,6.00
2023-01-09T20:02:55.132Z,5.90
2023-01-09T20:05:26.354Z,6.00
2023-01-09T20:07:57.929Z,6.10
2023-01-09T20:10:28.712Z,6.10
2023-01-09T20:13:18.213Z,6.10
2023-01-09T20:15:48.999Z,6.00
2023-01-09T20:18:19.910Z,6.00
2023-01-09T20:23:33.518Z,6.00
2023-01-09T20:26:05.256Z,6.00
2023-01-09T20:28:36.072Z,6.00
2023-01-09T20:31:09.181Z,6.00
2023-01-09T20:33:41.293Z,6.00
2023-01-09T20:36:13.771Z,6.00
2023-01-09T20:38:44.899Z,6.00
2023-01-09T20:41:20.208Z,6.00
2023-01-09T20:43:51.013Z,6.00
2023-01-09T20:46:22.644Z,6.00
2023-01-09T20:48:55.164Z,6.00
2023-01-09T20:54:05.894Z,5.80
2023-01-09T20:56:36.993Z,5.90
2023-01-09T20:59:09.236Z,5.90
2023-01-09T21:01:40.446Z,5.90
2023-01-09T21:04:11.715Z,5.80
2023-01-09T21:06:42.854Z,5.80
2023-01-09T21:09:13.624Z,5.80
2023-01-09T21:11:44.323Z,5.70
2023-01-09T21:14:15.000Z,5.80
2023-01-09T21:16:54.077Z,5.90
2023-01-09T21:19:19.399Z,5.80
2023-01-09T21:21:52.901Z,5.90
2023-01-09T21:24:22.403Z,6.00
2023-01-09T21:26:53.165Z,6.00
2023-01-09T21:29:23.796Z,6.00
2023-01-09T21:31:56.834Z,5.90
2023-01-09T21:34:27.020Z,5.90
2023-01-09T21:36:57.899Z,6.00
2023-01-09T21:39:29.283Z,6.00
2023-01-09T21:42:17.640Z,5.90
2023-01-09T21:45:25.379Z,5.90
2023-01-09T21:50:35.315Z,6.00
2023-01-09T21:53:06.436Z,6.00
2023-01-09T21:55:37.233Z,6.10
2023-01-09T21:58:07.808Z,6.10
2023-01-09T22:00:39.190Z,6.10
2023-01-09T22:03:11.335Z,6.20
2023-01-09T22:05:42.064Z,6.10
2023-01-09T22:08:12.659Z,6.20
2023-01-09T22:10:43.219Z,6.20
2023-01-09T22:13:15.505Z,6.20
2023-01-09T22:15:47.553Z,6.10
2023-01-09T22:18:18.120Z,6.10
2023-01-09T22:20:48.949Z,6.20
2023-01-09T22:23:19.639Z,6.20
2023-01-09T22:25:50.352Z,6.30
2023-01-09T22:28:20.993Z,6.40
2023-01-09T22:30:51.635Z,6.50
2023-01-09T22:33:24.043Z,6.30
2023-01-09T22:35:54.520Z,6.00
2023-01-09T22:38:25.109Z,5.80
2023-01-09T22:40:55.672Z,5.60
2023-01-09T22:43:26.546Z,5.50
2023-01-09T22:46:01.727Z,5.30
2023-01-09T22:48:34.783Z,5.30
2023-01-09T22:51:07.367Z,5.20
2023-01-09T22:53:38.049Z,5.10
2023-01-09T22:56:13.567Z,5.20
2023-01-09T22:58:44.447Z,5.20
2023-01-09T23:01:15.781Z,5.30
2023-01-09T23:03:46.541Z,5.30
2023-01-09T23:06:19.683Z,5.30
2023-01-09T23:08:51.861Z,5.20
2023-01-09T23:11:58.539Z,5.20
2023-01-09T23:14:29.626Z,5.20
2023-01-09T23:17:00.403Z,5.20
2023-01-09T23:19:32.732Z,5.10
2023-01-09T23:22:03.710Z,5.10
2023-01-09T23:24:34.569Z,5.10
2023-01-09T23:27:05.303Z,5.10
2023-01-09T23:29:38.445Z,5.00
2023-01-09T23:32:09.494Z,5.10
2023-01-09T23:34:41.754Z,5.00
2023-01-09T23:37:12.408Z,5.00
2023-01-09T23:39:43.083Z,5.00
2023-01-09T23:42:31.565Z,5.00
2023-01-09T23:45:02.237Z,5.00
2023-01-09T23:47:32.970Z,5.00
2023-01-09T23:50:04.149Z,5.00
2023-01-09T23:52:35.025Z,5.00
2023-01-09T23:55:06.517Z,5.10
2023-01-09T23:57:37.143Z,5.10
